createdAt,value
2022-10-24T00:01:44.246Z,11.52
2022-10-24T00:04:13.762Z,11.38
2022-10-24T00:06:42.072Z,10.07
2022-10-24T00:09:10.331Z,10.82
2022-10-24T00:11:38.612Z,12.35
2022-10-24T00:14:06.749Z,12.02
2022-10-24T00:16:35.804Z,11.98
2022-10-24T00:19:03.978Z,12.02
2022-10-24T00:21:33.489Z,11.65
2022-10-24T00:24:02.540Z,11.68
2022-10-24T00:26:31.177Z,11.15
2022-10-24T00:31:33.161Z,10.40
2022-10-24T00:34:02.128Z,10.48
2022-10-24T00:36:30.587Z,10.82
2022-10-24T00:39:00.291Z,11.10
2022-10-24T00:41:31.376Z,9.80
2022-10-24T00:44:24.344Z,8.88
2022-10-24T00:46:55.832Z,7.60
2022-10-24T00:49:28.367Z,8.10
2022-10-24T00:52:01.962Z,8.23
2022-10-24T00:54:31.770Z,8.75
2022-10-24T00:57:06.130Z,6.00
2022-10-24T00:59:36.114Z,5.65
2022-10-24T01:02:05.114Z,6.90
2022-10-24T01:04:33.313Z,6.40
2022-10-24T01:07:15.455Z,6.43
2022-10-24T01:10:01.106Z,4.97
2022-10-24T01:12:39.874Z,5.63
2022-10-24T01:15:17.054Z,5.40
2022-10-24T01:17:56.070Z,5.70
2022-10-24T01:20:46.993Z,5.57
2022-10-24T01:23:37.493Z,5.93
2022-10-24T01:26:32.061Z,6.57
2022-10-24T01:29:09.605Z,6.55
2022-10-24T01:31:46.733Z,5.25
2022-10-24T01:34:21.735Z,6.18
2022-10-24T01:36:57.824Z,6.63
2022-10-24T01:39:30.042Z,6.50
2022-10-24T01:41:59.831Z,7.32
2022-10-24T01:44:33.468Z,6.82
2022-10-24T01:47:07.079Z,7.18
2022-10-24T01:49:38.069Z,7.35
2022-10-24T01:54:48.137Z,6.50
2022-10-24T01:57:16.618Z,7.05
2022-10-24T01:59:47.222Z,6.68
2022-10-24T02:02:23.469Z,6.18
2022-10-24T02:04:56.858Z,6.97
2022-10-24T02:07:27.681Z,7.20
2022-10-24T02:10:01.013Z,6.50
2022-10-24T02:12:31.282Z,6.60
2022-10-24T02:15:03.562Z,6.90
2022-10-24T02:17:33.350Z,6.68
2022-10-24T02:20:01.925Z,7.32
2022-10-24T02:22:37.770Z,7.70
2022-10-24T02:25:10.336Z,7.00
2022-10-24T02:27:43.201Z,8.27
2022-10-24T02:30:15.259Z,6.40
2022-10-24T02:32:48.158Z,7.70
2022-10-24T02:35:19.576Z,6.50
2022-10-24T02:37:52.063Z,5.93
2022-10-24T02:40:23.011Z,6.47
2022-10-24T02:42:56.385Z,6.53
2022-10-24T02:45:26.403Z,6.15
2022-10-24T02:48:00.621Z,5.55
2022-10-24T02:50:29.378Z,5.50
2022-10-24T02:52:57.497Z,5.97
2022-10-24T02:55:25.919Z,6.00
2022-10-24T02:57:54.051Z,6.20
2022-10-24T03:00:22.638Z,6.10
2022-10-24T03:02:50.706Z,5.95
2022-10-24T03:05:20.417Z,6.07
2022-10-24T03:07:48.548Z,5.90
2022-10-24T03:10:16.794Z,5.45
2022-10-24T03:12:45.098Z,5.72
2022-10-24T03:15:13.542Z,5.70
2022-10-24T03:17:41.875Z,5.97
2022-10-24T03:20:10.987Z,6.90
2022-10-24T03:22:40.461Z,6.15
2022-10-24T03:25:11.423Z,5.80
2022-10-24T03:27:40.045Z,6.32
2022-10-24T03:30:09.011Z,7.10
2022-10-24T03:32:37.252Z,8.07
2022-10-24T03:35:09.158Z,7.45
2022-10-24T03:37:41.447Z,7.60
2022-10-24T03:40:10.766Z,5.97
2022-10-24T03:42:39.125Z,7.00
2022-10-24T03:45:08.479Z,7.40
2022-10-24T03:47:36.621Z,6.82
2022-10-24T03:50:05.537Z,7.10
2022-10-24T03:52:33.813Z,7.80
2022-10-24T03:55:03.707Z,7.55
2022-10-24T03:57:31.867Z,7.70
2022-10-24T03:59:59.955Z,7.18
2022-10-24T04:02:28.086Z,7.40
2022-10-24T04:04:56.205Z,13.15
2022-10-24T04:07:24.855Z,11.85
2022-10-24T04:09:52.967Z,13.10
2022-10-24T04:12:22.549Z,11.70
2022-10-24T04:14:51.098Z,9.30
2022-10-24T04:17:19.203Z,8.10
2022-10-24T04:19:47.360Z,10.70
2022-10-24T04:22:15.595Z,8.40
2022-10-24T04:24:43.734Z,8.98
2022-10-24T04:27:11.846Z,9.50
2022-10-24T04:29:41.431Z,9.02
2022-10-24T04:32:09.546Z,8.70
2022-10-24T04:34:37.769Z,10.10
2022-10-24T04:37:06.083Z,9.95
2022-10-24T04:39:34.210Z,9.38
2022-10-24T04:42:02.387Z,8.93
2022-10-24T04:44:30.782Z,9.35
2022-10-24T04:47:00.416Z,10.18
2022-10-24T04:49:28.547Z,8.70
2022-10-24T04:51:56.641Z,8.63
2022-10-24T04:54:24.845Z,8.73
2022-10-24T04:56:52.962Z,9.25
2022-10-24T04:59:21.094Z,9.00
2022-10-24T05:01:49.301Z,9.90
2022-10-24T05:04:18.845Z,8.90
2022-10-24T05:06:47.145Z,10.50
2022-10-24T05:09:15.797Z,9.27
2022-10-24T05:11:43.882Z,9.63
2022-10-24T05:14:12.009Z,9.27
2022-10-24T05:16:40.592Z,11.35
2022-10-24T05:19:08.905Z,11.63
2022-10-24T05:21:38.429Z,10.93
2022-10-24T05:24:06.752Z,11.10
2022-10-24T05:26:34.878Z,11.10
2022-10-24T05:29:03.043Z,12.52
2022-10-24T05:34:04.220Z,12.80
2022-10-24T05:36:32.410Z,14.13
2022-10-24T05:39:01.953Z,14.02
2022-10-24T05:41:30.148Z,18.55
2022-10-24T05:43:58.262Z,13.88
2022-10-24T05:46:26.546Z,13.15
2022-10-24T05:48:54.734Z,14.98
2022-10-24T05:51:23.247Z,13.75
2022-10-24T05:53:51.387Z,13.15
2022-10-24T05:56:20.923Z,14.15
2022-10-24T05:58:49.046Z,14.18
2022-10-24T06:01:17.188Z,15.25
2022-10-24T06:03:45.340Z,15.50
2022-10-24T06:06:13.435Z,16.45
2022-10-24T06:08:41.643Z,15.93
2022-10-24T06:11:10.976Z,14.65
2022-10-24T06:13:40.665Z,14.35
2022-10-24T06:16:10.178Z,15.57
2022-10-24T06:18:39.274Z,16.77
2022-10-24T06:21:09.207Z,16.52
2022-10-24T06:23:37.830Z,16.58
2022-10-24T06:26:10.066Z,14.45
2022-10-24T06:28:38.310Z,15.00
2022-10-24T06:31:08.296Z,14.60
2022-10-24T06:33:36.571Z,14.93
2022-10-24T06:36:09.404Z,15.83
2022-10-24T06:38:37.997Z,15.67
2022-10-24T06:41:10.806Z,16.93
2022-10-24T06:43:39.467Z,16.33
2022-10-24T06:46:09.874Z,14.93
2022-10-24T06:48:38.662Z,17.03
2022-10-24T06:51:07.072Z,17.10
2022-10-24T06:53:35.704Z,18.50
2022-10-24T06:56:05.187Z,18.20
2022-10-24T06:58:33.894Z,18.97
2022-10-24T07:01:08.496Z,21.20
2022-10-24T07:03:38.885Z,16.07
2022-10-24T07:06:08.874Z,17.53
2022-10-24T07:08:37.316Z,16.50
2022-10-24T07:11:05.557Z,17.77
2022-10-24T07:13:33.711Z,16.07
2022-10-24T07:16:01.846Z,15.07
2022-10-24T07:18:30.033Z,16.10
2022-10-24T07:21:04.147Z,14.90
2022-10-24T07:23:32.547Z,14.10
2022-10-24T07:26:03.586Z,14.73
2022-10-24T07:28:31.914Z,14.70
2022-10-24T07:31:00.165Z,15.80
2022-10-24T07:33:28.882Z,15.77
2022-10-24T07:35:57.364Z,15.20
2022-10-24T07:38:27.011Z,16.37
2022-10-24T07:40:55.182Z,14.10
2022-10-24T07:43:23.311Z,16.23
2022-10-24T07:45:52.333Z,13.43
2022-10-24T07:48:20.843Z,11.07
2022-10-24T07:50:49.100Z,12.30
2022-10-24T07:53:17.475Z,11.67
2022-10-24T07:55:46.992Z,12.17
2022-10-24T07:58:15.369Z,12.20
2022-10-24T08:00:45.388Z,12.50
2022-10-24T08:03:14.375Z,13.10
2022-10-24T08:05:42.922Z,12.67
2022-10-24T08:08:30.869Z,12.57
2022-10-24T08:13:34.175Z,11.60
2022-10-24T08:16:02.862Z,12.03
2022-10-24T08:18:33.620Z,12.40
2022-10-24T08:21:06.549Z,11.90
2022-10-24T08:23:35.950Z,13.07
2022-10-24T08:26:07.395Z,11.90
2022-10-24T08:28:35.817Z,11.63
2022-10-24T08:31:05.841Z,11.80
2022-10-24T08:33:34.374Z,12.53
2022-10-24T08:36:05.006Z,11.00
2022-10-24T08:38:33.174Z,12.43
2022-10-24T08:41:01.560Z,14.47
2022-10-24T08:43:31.104Z,12.90
2022-10-24T08:46:09.438Z,16.13
2022-10-24T08:48:44.319Z,12.47
2022-10-24T08:51:21.185Z,14.97
2022-10-24T08:53:51.362Z,15.10
2022-10-24T08:56:19.877Z,13.80
2022-10-24T08:58:51.923Z,15.00
2022-10-24T09:01:31.127Z,12.60
2022-10-24T09:04:04.317Z,13.93
2022-10-24T09:06:33.913Z,12.77
2022-10-24T09:09:05.462Z,13.00
2022-10-24T09:11:42.651Z,14.30
2022-10-24T09:14:16.255Z,13.80
2022-10-24T09:16:46.874Z,13.90
2022-10-24T09:19:17.455Z,12.67
2022-10-24T09:21:46.897Z,11.17
2022-10-24T09:24:29.962Z,10.90
2022-10-24T09:27:00.757Z,9.60
2022-10-24T09:29:33.798Z,11.53
2022-10-24T09:32:03.229Z,10.33
2022-10-24T09:34:31.481Z,10.03
2022-10-24T09:36:59.918Z,8.77
2022-10-24T09:39:31.455Z,9.47
2022-10-24T09:42:01.007Z,10.10
2022-10-24T09:44:34.291Z,10.90
2022-10-24T09:47:04.676Z,9.87
2022-10-24T09:49:36.600Z,9.80
2022-10-24T09:52:09.470Z,10.90
2022-10-24T09:54:37.894Z,10.67
2022-10-24T09:59:45.497Z,10.47
2022-10-24T10:02:26.303Z,10.00
2022-10-24T10:05:17.499Z,10.90
2022-10-24T10:07:48.636Z,10.50
2022-10-24T10:10:30.736Z,10.20
2022-10-24T10:13:06.178Z,9.73
2022-10-24T10:15:39.400Z,9.33
2022-10-24T10:18:24.174Z,11.00
2022-10-24T10:21:01.355Z,9.63
2022-10-24T10:23:32.898Z,11.20
2022-10-24T10:26:17.964Z,9.47
2022-10-24T10:28:56.002Z,8.90
2022-10-24T10:31:34.785Z,9.13
2022-10-24T10:34:18.846Z,8.50
2022-10-24T10:37:18.886Z,9.47
2022-10-24T10:40:03.662Z,9.10
2022-10-24T10:42:37.507Z,9.43
2022-10-24T10:45:17.233Z,10.63
2022-10-24T10:48:02.425Z,11.10
2022-10-24T10:50:39.895Z,9.83
2022-10-24T10:53:22.738Z,9.40
2022-10-24T10:56:03.126Z,10.97
2022-10-24T11:01:23.156Z,9.27
2022-10-24T11:04:00.742Z,10.23
2022-10-24T11:06:39.090Z,10.03
2022-10-24T11:09:38.202Z,10.73
2022-10-24T11:12:14.957Z,11.13
2022-10-24T11:14:47.582Z,9.67
2022-10-24T11:17:20.242Z,8.67
2022-10-24T11:19:59.394Z,8.30
2022-10-24T11:22:32.315Z,9.00
2022-10-24T11:25:03.803Z,12.73
2022-10-24T11:27:41.259Z,9.53
2022-10-24T11:30:15.926Z,9.70
2022-10-24T11:32:48.733Z,9.30
2022-10-24T11:35:28.148Z,8.80
2022-10-24T11:38:00.109Z,9.57
2022-10-24T11:40:30.838Z,8.70
2022-10-24T11:43:08.521Z,8.90
2022-10-24T11:45:46.853Z,9.23
2022-10-24T11:48:20.701Z,7.40
2022-10-24T11:50:55.319Z,7.40
2022-10-24T11:53:48.412Z,8.80
2022-10-24T11:56:26.266Z,8.30
2022-10-24T11:59:00.282Z,7.37
2022-10-24T12:01:54.098Z,7.53
2022-10-24T12:04:44.033Z,7.30
2022-10-24T12:07:52.205Z,7.60
2022-10-24T12:10:35.588Z,5.93
2022-10-24T12:13:16.879Z,7.40
2022-10-24T12:15:53.282Z,6.03
2022-10-24T12:18:31.226Z,6.90
2022-10-24T12:21:04.424Z,7.43
2022-10-24T12:23:34.775Z,7.03
2022-10-24T12:26:05.255Z,7.43
2022-10-24T12:28:34.087Z,7.63
2022-10-24T12:31:23.827Z,7.70
2022-10-24T12:34:49.442Z,6.40
2022-10-24T12:37:37.750Z,6.83
2022-10-24T12:40:43.027Z,6.80
2022-10-24T12:43:28.954Z,6.93
2022-10-24T12:46:00.184Z,7.43
2022-10-24T12:48:37.052Z,7.13
2022-10-24T12:51:26.286Z,6.83
2022-10-24T12:54:04.234Z,7.40
2022-10-24T12:56:33.925Z,8.43
2022-10-24T12:59:20.105Z,6.80
2022-10-24T13:01:50.155Z,6.70
2022-10-24T13:04:52.293Z,7.80
2022-10-24T13:07:52.300Z,6.73
2022-10-24T13:10:37.584Z,6.33
2022-10-24T13:13:28.077Z,6.53
2022-10-24T13:16:03.187Z,7.30
2022-10-24T13:18:44.738Z,6.13
2022-10-24T13:21:23.387Z,8.10
2022-10-24T13:23:52.402Z,6.30
2022-10-24T13:26:39.721Z,6.60
2022-10-24T13:29:14.543Z,6.80
2022-10-24T13:31:50.212Z,5.60
2022-10-24T13:34:31.871Z,6.77
2022-10-24T13:37:08.085Z,5.70
2022-10-24T13:39:42.440Z,6.17
2022-10-24T13:42:24.519Z,6.70
2022-10-24T13:44:55.406Z,8.63
2022-10-24T13:47:29.658Z,6.77
2022-10-24T13:50:01.601Z,7.60
2022-10-24T13:52:38.153Z,7.33
2022-10-24T13:55:20.109Z,7.50
2022-10-24T13:57:53.945Z,7.40
2022-10-24T14:00:24.269Z,8.60
2022-10-24T14:02:54.957Z,8.80
2022-10-24T14:05:31.058Z,7.70
2022-10-24T14:08:00.723Z,7.30
2022-10-24T14:10:30.054Z,6.77
2022-10-24T14:12:59.170Z,8.20
2022-10-24T14:15:30.864Z,7.23
2022-10-24T14:18:03.236Z,6.63
2022-10-24T14:20:34.589Z,7.03
2022-10-24T14:23:03.426Z,7.47
2022-10-24T14:25:36.151Z,8.10
2022-10-24T14:28:15.657Z,7.10
2022-10-24T14:30:55.175Z,7.97
2022-10-24T14:33:26.985Z,7.60
2022-10-24T14:35:58.020Z,8.03
2022-10-24T14:38:27.899Z,9.20
2022-10-24T14:41:08.198Z,8.23
2022-10-24T14:43:42.121Z,8.43
2022-10-24T14:46:28.894Z,9.40
2022-10-24T14:49:02.946Z,9.97
2022-10-24T14:51:38.647Z,8.37
2022-10-24T14:54:18.585Z,8.33
2022-10-24T14:56:47.390Z,9.00
2022-10-24T14:59:26.251Z,7.83
2022-10-24T15:02:00.810Z,9.10
2022-10-24T15:04:37.517Z,9.53
2022-10-24T15:07:20.878Z,11.67
2022-10-24T15:09:54.031Z,12.03
2022-10-24T15:12:33.869Z,10.70
2022-10-24T15:15:23.056Z,10.63
2022-10-24T15:17:52.318Z,10.60
2022-10-24T15:20:24.453Z,12.50
2022-10-24T15:22:56.060Z,11.40
2022-10-24T15:25:28.639Z,18.33
2022-10-24T15:28:00.238Z,17.87
2022-10-24T15:30:30.485Z,14.77
2022-10-24T15:33:01.095Z,12.90
2022-10-24T15:35:34.985Z,13.37
2022-10-24T15:38:11.631Z,16.87
2022-10-24T15:40:43.320Z,11.90
2022-10-24T15:43:13.254Z,13.50
2022-10-24T15:45:41.398Z,15.80
2022-10-24T15:48:09.822Z,16.40
2022-10-24T15:50:45.150Z,12.37
2022-10-24T15:53:18.281Z,15.53
2022-10-24T15:55:46.953Z,14.77
2022-10-24T15:58:16.741Z,13.63
2022-10-24T16:00:45.062Z,13.27
2022-10-24T16:03:16.506Z,15.80
2022-10-24T16:05:51.927Z,15.53
2022-10-24T16:08:20.756Z,14.20
2022-10-24T16:10:50.897Z,16.23
2022-10-24T16:13:20.482Z,18.90
2022-10-24T16:15:48.838Z,15.30
2022-10-24T16:18:17.443Z,16.43
2022-10-24T16:20:47.300Z,14.93
2022-10-24T16:23:17.651Z,12.87
2022-10-24T16:25:47.078Z,13.23
2022-10-24T16:28:15.676Z,13.93
2022-10-24T16:30:43.960Z,12.83
2022-10-24T16:33:12.463Z,12.93
2022-10-24T16:35:41.630Z,12.83
2022-10-24T16:38:12.313Z,12.63
2022-10-24T16:40:42.141Z,14.47
2022-10-24T16:43:12.182Z,14.00
2022-10-24T16:45:40.595Z,14.60
2022-10-24T16:48:08.769Z,13.37
2022-10-24T16:50:37.001Z,11.43
2022-10-24T16:53:07.398Z,14.67
2022-10-24T16:55:37.330Z,15.37
2022-10-24T16:58:05.651Z,14.30
2022-10-24T17:00:33.801Z,14.57
2022-10-24T17:03:01.907Z,14.47
2022-10-24T17:05:30.070Z,15.73
2022-10-24T17:07:58.203Z,16.63
2022-10-24T17:10:26.739Z,12.60
2022-10-24T17:12:56.448Z,16.03
2022-10-24T17:15:24.554Z,16.03
2022-10-24T17:17:52.690Z,15.57
2022-10-24T17:20:20.870Z,16.30
2022-10-24T17:22:49.320Z,15.77
2022-10-24T17:25:21.423Z,21.00
2022-10-24T17:27:50.784Z,19.93
2022-10-24T17:30:22.724Z,19.53
2022-10-24T17:32:51.409Z,20.57
2022-10-24T17:35:21.634Z,19.07
2022-10-24T17:38:07.683Z,17.60
2022-10-24T17:40:42.602Z,18.60
2022-10-24T17:43:19.486Z,19.50
2022-10-24T17:45:50.491Z,19.43
2022-10-24T17:48:18.815Z,21.47
2022-10-24T17:50:47.689Z,20.33
2022-10-24T17:53:17.025Z,19.50
2022-10-24T17:55:47.439Z,21.60
2022-10-24T17:58:16.946Z,19.93
2022-10-24T18:00:45.330Z,21.63
2022-10-24T18:03:15.432Z,24.37
2022-10-24T18:05:43.602Z,27.37
2022-10-24T18:08:13.097Z,27.10
2022-10-24T18:10:42.487Z,28.60
2022-10-24T18:13:10.785Z,28.50
2022-10-24T18:15:38.988Z,27.27
2022-10-24T18:18:07.398Z,30.60
2022-10-24T18:20:37.039Z,30.40
2022-10-24T18:23:05.430Z,31.10
2022-10-24T18:25:33.564Z,26.27
2022-10-24T18:28:01.667Z,26.50
2022-10-24T18:30:29.940Z,27.37
2022-10-24T18:32:58.118Z,22.53
2022-10-24T18:35:28.779Z,24.50
2022-10-24T18:37:58.316Z,26.20
2022-10-24T18:40:26.840Z,29.17
2022-10-24T18:42:59.588Z,31.13
2022-10-24T18:45:29.152Z,29.80
2022-10-24T18:47:57.652Z,27.77
2022-10-24T18:50:26.497Z,29.73
2022-10-24T18:53:02.654Z,28.50
2022-10-24T18:55:32.910Z,27.87
2022-10-24T18:58:01.752Z,27.53
2022-10-24T19:00:32.636Z,27.47
2022-10-24T19:03:15.093Z,21.00
2022-10-24T19:05:47.896Z,18.67
2022-10-24T19:08:22.153Z,21.87
2022-10-24T19:10:51.748Z,22.73
2022-10-24T19:13:20.355Z,25.80
2022-10-24T19:15:53.501Z,28.07
2022-10-24T19:18:22.090Z,30.80
2022-10-24T19:20:50.290Z,30.00
2022-10-24T19:23:19.795Z,26.27
2022-10-24T19:25:47.923Z,23.73
2022-10-24T19:28:18.522Z,24.13
2022-10-24T19:30:47.915Z,20.77
2022-10-24T19:33:16.878Z,20.40
2022-10-24T19:35:47.198Z,20.20
2022-10-24T19:38:15.605Z,20.90
2022-10-24T19:40:49.671Z,23.80
2022-10-24T19:43:17.923Z,23.90
2022-10-24T19:45:50.652Z,25.40
2022-10-24T19:48:32.656Z,21.50
2022-10-24T19:51:04.290Z,22.73
2022-10-24T19:53:35.461Z,20.30
2022-10-24T19:56:10.026Z,19.10
2022-10-24T19:58:38.523Z,26.63
2022-10-24T20:01:07.413Z,29.23
2022-10-24T20:03:36.959Z,39.57
2022-10-24T20:06:05.696Z,41.87
2022-10-24T20:08:34.457Z,40.40
2022-10-24T20:11:03.090Z,38.23
2022-10-24T20:13:32.735Z,38.03
2022-10-24T20:16:04.069Z,45.93
2022-10-24T20:18:33.845Z,52.10
2022-10-24T20:21:04.067Z,50.73
2022-10-24T20:23:32.771Z,44.73
2022-10-24T20:26:02.965Z,43.70
2022-10-24T20:28:35.388Z,46.30
2022-10-24T20:31:04.018Z,53.17
2022-10-24T20:33:32.217Z,53.60
2022-10-24T20:36:00.766Z,47.27
2022-10-24T20:38:29.801Z,46.63
2022-10-24T20:41:02.511Z,53.20
2022-10-24T20:43:32.106Z,57.77
2022-10-24T20:46:00.306Z,54.43
2022-10-24T20:48:28.403Z,47.20
2022-10-24T20:51:04.022Z,44.70
2022-10-24T20:53:32.435Z,45.07
2022-10-24T20:56:05.273Z,46.17
2022-10-24T20:58:34.901Z,44.03
2022-10-24T21:01:07.209Z,57.93
2022-10-24T21:03:36.561Z,64.30
2022-10-24T21:06:05.706Z,60.40
2022-10-24T21:08:33.879Z,57.70
2022-10-24T21:11:06.763Z,53.90
2022-10-24T21:13:36.276Z,52.40
2022-10-24T21:16:04.424Z,47.57
2022-10-24T21:18:33.168Z,40.63
2022-10-24T21:21:07.302Z,35.53
2022-10-24T21:23:35.539Z,40.50
2022-10-24T21:26:05.522Z,39.90
2022-10-24T21:28:34.041Z,38.23
2022-10-24T21:31:06.420Z,37.07
2022-10-24T21:33:35.134Z,40.70
2022-10-24T21:36:06.190Z,51.50
2022-10-24T21:38:34.312Z,40.63
2022-10-24T21:41:03.001Z,40.30
2022-10-24T21:43:33.093Z,30.13
2022-10-24T21:46:07.714Z,28.83
2022-10-24T21:48:36.129Z,28.13
2022-10-24T21:51:06.590Z,27.47
2022-10-24T21:53:38.332Z,30.93
2022-10-24T21:56:08.747Z,56.63
2022-10-24T21:58:37.075Z,45.73
2022-10-24T22:01:12.343Z,57.53
2022-10-24T22:03:41.189Z,56.67
2022-10-24T22:06:11.999Z,52.90
2022-10-24T22:08:41.047Z,54.88
2022-10-24T22:11:12.232Z,51.08
2022-10-24T22:13:41.202Z,50.20
2022-10-24T22:16:11.971Z,36.65
2022-10-24T22:18:40.478Z,32.05
2022-10-24T22:21:10.950Z,34.58
2022-10-24T22:23:39.093Z,34.63
2022-10-24T22:26:07.210Z,30.98
2022-10-24T22:28:35.318Z,33.20
2022-10-24T22:31:03.981Z,39.87
2022-10-24T22:33:36.751Z,39.25
2022-10-24T22:36:12.766Z,39.05
2022-10-24T22:38:41.354Z,40.33
2022-10-24T22:41:11.102Z,34.80
2022-10-24T22:43:39.685Z,28.23
2022-10-24T22:46:19.716Z,27.53
2022-10-24T22:48:54.591Z,34.80
2022-10-24T22:51:23.277Z,34.90
2022-10-24T22:53:51.895Z,36.93
2022-10-24T22:56:27.083Z,31.98
2022-10-24T22:58:55.730Z,36.88
2022-10-24T23:01:44.341Z,32.35
2022-10-24T23:04:25.955Z,30.05
2022-10-24T23:06:59.448Z,29.77
2022-10-24T23:09:27.632Z,31.20
2022-10-24T23:11:56.410Z,30.77
2022-10-24T23:14:25.053Z,27.92
2022-10-24T23:16:58.817Z,27.83
2022-10-24T23:19:30.356Z,24.50
2022-10-24T23:22:01.852Z,20.60
2022-10-24T23:24:30.529Z,21.10
2022-10-24T23:27:24.306Z,19.73
2022-10-24T23:29:53.106Z,21.50
2022-10-24T23:32:24.156Z,19.38
2022-10-24T23:34:55.342Z,19.45
2022-10-24T23:37:32.372Z,17.65
2022-10-24T23:40:01.698Z,23.92
2022-10-24T23:42:30.507Z,23.70
2022-10-24T23:44:59.061Z,21.67
2022-10-24T23:47:45.715Z,30.00
2022-10-24T23:50:21.102Z,33.25
2022-10-24T23:53:01.439Z,30.85
2022-10-24T23:55:30.061Z,32.15
2022-10-24T23:57:58.189Z,31.83
